Seneimaru — JG5357 — position and weather

sailwx.info

Track history (hours):
 
Tides and Currents Weather Stations Pressure Air Temp Water Temp Dewpoint Dewpoint Depression Visibility Wind Speed Wind Dir Waves Ship Positions

Seneimaru

Last reported at 2016-Feb-12 00:33 UTC. Time now 2016-Feb-12 18:14 UTC.
Position N 35°28' E 139°47'.

Length 72 m; draft 5.9 m.

Type: Cargo ship. MMSI: 431100477.

Date/timePositionNaut miles runAvg speedWind from/ knotsBaromVisibWave heightAir tempDewpointWater temp
2016-Feb-12 00:33N 35°28' E 139°47'4 3.8
2016-Feb-11 23:33N 35°30' E 139°43'0 0.0
2016-Feb-11 22:33N 35°30' E 139°43'0 0.0
2016-Feb-11 21:33N 35°30' E 139°43'0 0.0
2016-Feb-11 20:33N 35°30' E 139°43'1 1.4
2016-Feb-11 19:33N 35°29' E 139°42'6 2.6
2016-Feb-11 17:21N 35°24' E 139°44'0 0.0
2016-Feb-11 16:24N 35°24' E 139°44'0 0.0
2016-Feb-11 15:27N 35°24' E 139°44'0 0.0
2016-Feb-11 14:15N 35°24' E 139°44'0 0.0
2016-Feb-11 13:24N 35°24' E 139°44'0 0.0
2016-Feb-11 12:24N 35°24' E 139°44'0 0.0
2016-Feb-11 11:18N 35°24' E 139°44'0 0.0
2016-Feb-11 10:33N 35°24' E 139°44'0 0.1
2016-Feb-11 09:33N 35°24' E 139°44'4 0.1
2016-Feb-09 20:24N 35°20' E 139°43'910.7
2016-Feb-09 19:33N 35°28' E 139°47'4 3.9
2016-Feb-09 18:33N 35°30' E 139°43'0 0.0
2016-Feb-09 17:33N 35°30' E 139°43'0 0.0
2016-Feb-09 16:33N 35°30' E 139°43'0 0.0
2016-Feb-09 15:33N 35°30' E 139°43'0 0.0
2016-Feb-09 14:33N 35°30' E 139°43'0 0.0
2016-Feb-09 13:33N 35°30' E 139°43'0 0.0
2016-Feb-09 12:33N 35°30' E 139°43'0 0.0
2016-Feb-09 11:33N 35°30' E 139°43'0 0.0
2016-Feb-09 10:33N 35°30' E 139°43'0 0.0
2016-Feb-09 09:33N 35°30' E 139°43'0 0.0
2016-Feb-09 08:33N 35°30' E 139°43'0 0.0
2016-Feb-09 07:33N 35°30' E 139°43'0 0.0
2016-Feb-09 06:33N 35°30' E 139°43'0 0.0
2016-Feb-09 05:33N 35°30' E 139°43'0 0.0
2016-Feb-09 04:33N 35°30' E 139°43'0 0.0
2016-Feb-09 03:33N 35°30' E 139°43'0 0.0
2016-Feb-09 02:33N 35°30' E 139°43'0 0.0
2016-Feb-09 01:33N 35°30' E 139°43'0 0.0
2016-Feb-09 00:33N 35°30' E 139°43'0 0.0
2016-Feb-08 23:32N 35°30' E 139°43'0 0.0
2016-Feb-08 22:33N 35°30' E 139°43'0 0.0
2016-Feb-08 21:33N 35°30' E 139°43'0 0.0
2016-Feb-08 20:33N 35°30' E 139°43'0 0.0
2016-Feb-08 19:33N 35°30' E 139°43'0 0.0
2016-Feb-08 18:33N 35°30' E 139°43'0 0.0
2016-Feb-08 17:33N 35°30' E 139°43'0 0.0
2016-Feb-08 16:33N 35°30' E 139°43'0 0.0
2016-Feb-08 15:33N 35°30' E 139°43'0 0.0
2016-Feb-08 14:33N 35°30' E 139°43'0 0.0
2016-Feb-08 13:33N 35°30' E 139°43'0 0.0
2016-Feb-08 12:33N 35°30' E 139°43'0 0.0
2016-Feb-08 11:33N 35°30' E 139°43'0 0.0
2016-Feb-08 10:33N 35°30' E 139°43'0 0.0
2016-Feb-08 09:33N 35°30' E 139°43'0 0.0
2016-Feb-08 08:33N 35°30' E 139°43'0 0.0
2016-Feb-08 07:33N 35°30' E 139°43'0 0.0
2016-Feb-08 06:13N 35°30' E 139°43'0 0.0
2016-Feb-08 05:26N 35°30' E 139°43'0 0.0
2016-Feb-08 04:33N 35°30' E 139°43'0 0.0
2016-Feb-08 03:33N 35°30' E 139°43'0 0.0
2016-Feb-08 02:33N 35°30' E 139°43'0 0.0
2016-Feb-08 01:26N 35°30' E 139°43'0 0.0
2016-Feb-07 22:17N 35°30' E 139°43'0 0.0
2016-Feb-07 21:33N 35°30' E 139°43'1 1.4
2016-Feb-07 20:33N 35°29' E 139°42'6 6.4
2016-Feb-07 19:33N 35°23' E 139°44'0 0.0
2016-Feb-07 18:33N 35°23' E 139°44'0 0.0
2016-Feb-07 16:33N 35°23' E 139°44'1110.5
2016-Feb-07 15:33N 35°12' E 139°47'1212.2
2016-Feb-07 14:33N 35°01' E 139°44'7 0.2
2016-Feb-06 04:20N 34°54' E 139°46'810.6
2016-Feb-06 03:33N 35°02' E 139°44'1211.9
2016-Feb-06 02:33N 35°14' E 139°46'1110.6
2016-Feb-06 01:33N 35°24' E 139°43'6 5.5
2016-Feb-06 00:34N 35°30' E 139°43'1 0.7
2016-Feb-05 23:33N 35°30' E 139°43'0 0.0
2016-Feb-05 22:33N 35°30' E 139°43'0 0.0
2016-Feb-05 21:33N 35°30' E 139°43'0 0.0
2016-Feb-05 20:33N 35°30' E 139°43'0 0.0
2016-Feb-05 19:33N 35°30' E 139°43'0 0.0
2016-Feb-05 18:33N 35°30' E 139°43'0 0.0
2016-Feb-05 17:33N 35°30' E 139°43'0 0.0
2016-Feb-05 16:33N 35°30' E 139°43'0 0.0
2016-Feb-05 15:33N 35°30' E 139°43'0 0.0
2016-Feb-05 14:33N 35°30' E 139°43'0 0.0
2016-Feb-05 13:33N 35°30' E 139°43'0 0.0
2016-Feb-05 12:33N 35°30' E 139°43'0 0.0
2016-Feb-05 11:33N 35°30' E 139°43'0 0.0
2016-Feb-05 10:33N 35°30' E 139°43'0 0.0
2016-Feb-05 09:33N 35°30' E 139°43'0 0.0
2016-Feb-05 08:33N 35°30' E 139°43'0 0.0
2016-Feb-05 07:33N 35°30' E 139°43'0 0.0
2016-Feb-05 06:33N 35°30' E 139°43'0 0.0
2016-Feb-05 05:33N 35°30' E 139°43'0 0.0
2016-Feb-05 04:33N 35°30' E 139°43'0 0.0
2016-Feb-05 03:33N 35°30' E 139°43'0 0.0
2016-Feb-05 02:33N 35°30' E 139°43'0 0.0
2016-Feb-05 01:33N 35°30' E 139°43'2 2.5
2016-Feb-05 00:33N 35°28' E 139°43'4 4.1
2016-Feb-04 23:32N 35°24' E 139°45'0 0.0
2016-Feb-04 22:32N 35°24' E 139°45'0 0.0
2016-Feb-04 21:32N 35°24' E 139°45'0 0.0
2016-Feb-04 20:32N 35°24' E 139°45'0 0.0
2016-Feb-04 19:32N 35°24' E 139°45'0 0.0
2016-Feb-04 18:33N 35°24' E 139°45'9 8.6
2016-Feb-04 17:33N 35°16' E 139°47'1311.6
2016-Feb-04 16:27N 35°03' E 139°45'22 0.6
2016-Feb-03 03:34N 35°25' E 139°43'5 5.1
2016-Feb-03 02:33N 35°30' E 139°43'0 0.3
2016-Feb-03 01:33N 35°30' E 139°43'0 0.0
2016-Feb-03 00:34N 35°30' E 139°43'0 0.0
2016-Feb-02 23:33N 35°30' E 139°43'0 0.0
2016-Feb-02 22:33N 35°30' E 139°43'0 0.0
2016-Feb-02 21:34N 35°30' E 139°43'0 0.0
2016-Feb-02 20:33N 35°30' E 139°43'0 0.0
2016-Feb-02 19:33N 35°30' E 139°43'0 0.0
2016-Feb-02 18:33N 35°30' E 139°43'0 0.0
2016-Feb-02 17:34N 35°30' E 139°43'0 0.0
2016-Feb-02 16:33N 35°30' E 139°43'0 0.0
2016-Feb-02 15:34N 35°30' E 139°43'0 0.0
2016-Feb-02 14:33N 35°30' E 139°43'0 0.0
2016-Feb-02 13:33N 35°30' E 139°43'0 0.0
2016-Feb-02 12:34N 35°30' E 139°43'0 0.0
2016-Feb-02 11:34N 35°30' E 139°43'0 0.0
2016-Feb-02 10:33N 35°30' E 139°43'0 0.0
2016-Feb-02 09:33N 35°30' E 139°43'0 0.0
2016-Feb-02 08:34N 35°30' E 139°43'0 0.0
2016-Feb-02 07:33N 35°30' E 139°43'0 0.0
2016-Feb-02 06:33N 35°30' E 139°43'0 0.0
2016-Feb-02 05:33N 35°30' E 139°43'0 0.0
2016-Feb-02 04:33N 35°30' E 139°43'0 0.0
2016-Feb-02 03:33N 35°30' E 139°43'0 0.0
2016-Feb-02 02:33N 35°30' E 139°43'5 5.0
2016-Feb-02 01:33N 35°25' E 139°44'  
Track history (hours):
 
Tides and Currents Weather Stations Pressure Air Temp Water Temp Dewpoint Dewpoint Depression Visibility Wind Speed Wind Dir Waves Ship Positions

Seneimaru

Last reported at 2016-Feb-12 00:33 UTC. Time now 2016-Feb-12 18:14 UTC.
Position N 35°28' E 139°47'.

Length 72 m; draft 5.9 m.

Type: Cargo ship. MMSI: 431100477.

Date/timePositionNaut miles runAvg speedWind from/ knotsBaromVisibWave heightAir tempDewpointWater temp
2016-Feb-12 00:33N 35°28' E 139°47'4 3.8
2016-Feb-11 23:33N 35°30' E 139°43'0 0.0
2016-Feb-11 22:33N 35°30' E 139°43'0 0.0
2016-Feb-11 21:33N 35°30' E 139°43'0 0.0
2016-Feb-11 20:33N 35°30' E 139°43'1 1.4
2016-Feb-11 19:33N 35°29' E 139°42'6 2.6
2016-Feb-11 17:21N 35°24' E 139°44'0 0.0
2016-Feb-11 16:24N 35°24' E 139°44'0 0.0
2016-Feb-11 15:27N 35°24' E 139°44'0 0.0
2016-Feb-11 14:15N 35°24' E 139°44'0 0.0
2016-Feb-11 13:24N 35°24' E 139°44'0 0.0
2016-Feb-11 12:24N 35°24' E 139°44'0 0.0
2016-Feb-11 11:18N 35°24' E 139°44'0 0.0
2016-Feb-11 10:33N 35°24' E 139°44'0 0.1
2016-Feb-11 09:33N 35°24' E 139°44'4 0.1
2016-Feb-09 20:24N 35°20' E 139°43'910.7
2016-Feb-09 19:33N 35°28' E 139°47'4 3.9
2016-Feb-09 18:33N 35°30' E 139°43'0 0.0
2016-Feb-09 17:33N 35°30' E 139°43'0 0.0
2016-Feb-09 16:33N 35°30' E 139°43'0 0.0
2016-Feb-09 15:33N 35°30' E 139°43'0 0.0
2016-Feb-09 14:33N 35°30' E 139°43'0 0.0
2016-Feb-09 13:33N 35°30' E 139°43'0 0.0
2016-Feb-09 12:33N 35°30' E 139°43'0 0.0
2016-Feb-09 11:33N 35°30' E 139°43'0 0.0
2016-Feb-09 10:33N 35°30' E 139°43'0 0.0
2016-Feb-09 09:33N 35°30' E 139°43'0 0.0
2016-Feb-09 08:33N 35°30' E 139°43'0 0.0
2016-Feb-09 07:33N 35°30' E 139°43'0 0.0
2016-Feb-09 06:33N 35°30' E 139°43'0 0.0
2016-Feb-09 05:33N 35°30' E 139°43'0 0.0
2016-Feb-09 04:33N 35°30' E 139°43'0 0.0
2016-Feb-09 03:33N 35°30' E 139°43'0 0.0
2016-Feb-09 02:33N 35°30' E 139°43'0 0.0
2016-Feb-09 01:33N 35°30' E 139°43'0 0.0
2016-Feb-09 00:33N 35°30' E 139°43'0 0.0
2016-Feb-08 23:32N 35°30' E 139°43'0 0.0
2016-Feb-08 22:33N 35°30' E 139°43'0 0.0
2016-Feb-08 21:33N 35°30' E 139°43'0 0.0
2016-Feb-08 20:33N 35°30' E 139°43'0 0.0
2016-Feb-08 19:33N 35°30' E 139°43'0 0.0
2016-Feb-08 18:33N 35°30' E 139°43'0 0.0
2016-Feb-08 17:33N 35°30' E 139°43'0 0.0
2016-Feb-08 16:33N 35°30' E 139°43'0 0.0
2016-Feb-08 15:33N 35°30' E 139°43'0 0.0
2016-Feb-08 14:33N 35°30' E 139°43'0 0.0
2016-Feb-08 13:33N 35°30' E 139°43'0 0.0
2016-Feb-08 12:33N 35°30' E 139°43'0 0.0
2016-Feb-08 11:33N 35°30' E 139°43'0 0.0
2016-Feb-08 10:33N 35°30' E 139°43'0 0.0
2016-Feb-08 09:33N 35°30' E 139°43'0 0.0
2016-Feb-08 08:33N 35°30' E 139°43'0 0.0
2016-Feb-08 07:33N 35°30' E 139°43'0 0.0
2016-Feb-08 06:13N 35°30' E 139°43'0 0.0
2016-Feb-08 05:26N 35°30' E 139°43'0 0.0
2016-Feb-08 04:33N 35°30' E 139°43'0 0.0
2016-Feb-08 03:33N 35°30' E 139°43'0 0.0
2016-Feb-08 02:33N 35°30' E 139°43'0 0.0
2016-Feb-08 01:26N 35°30' E 139°43'0 0.0
2016-Feb-07 22:17N 35°30' E 139°43'0 0.0
2016-Feb-07 21:33N 35°30' E 139°43'1 1.4
2016-Feb-07 20:33N 35°29' E 139°42'6 6.4
2016-Feb-07 19:33N 35°23' E 139°44'0 0.0
2016-Feb-07 18:33N 35°23' E 139°44'0 0.0
2016-Feb-07 16:33N 35°23' E 139°44'1110.5
2016-Feb-07 15:33N 35°12' E 139°47'1212.2
2016-Feb-07 14:33N 35°01' E 139°44'7 0.2
2016-Feb-06 04:20N 34°54' E 139°46'810.6
2016-Feb-06 03:33N 35°02' E 139°44'1211.9
2016-Feb-06 02:33N 35°14' E 139°46'1110.6
2016-Feb-06 01:33N 35°24' E 139°43'6 5.5
2016-Feb-06 00:34N 35°30' E 139°43'1 0.7
2016-Feb-05 23:33N 35°30' E 139°43'0 0.0
2016-Feb-05 22:33N 35°30' E 139°43'0 0.0
2016-Feb-05 21:33N 35°30' E 139°43'0 0.0
2016-Feb-05 20:33N 35°30' E 139°43'0 0.0
2016-Feb-05 19:33N 35°30' E 139°43'0 0.0
2016-Feb-05 18:33N 35°30' E 139°43'0 0.0
2016-Feb-05 17:33N 35°30' E 139°43'0 0.0
2016-Feb-05 16:33N 35°30' E 139°43'0 0.0
2016-Feb-05 15:33N 35°30' E 139°43'0 0.0
2016-Feb-05 14:33N 35°30' E 139°43'0 0.0
2016-Feb-05 13:33N 35°30' E 139°43'0 0.0
2016-Feb-05 12:33N 35°30' E 139°43'0 0.0
2016-Feb-05 11:33N 35°30' E 139°43'0 0.0
2016-Feb-05 10:33N 35°30' E 139°43'0 0.0
2016-Feb-05 09:33N 35°30' E 139°43'0 0.0
2016-Feb-05 08:33N 35°30' E 139°43'0 0.0
2016-Feb-05 07:33N 35°30' E 139°43'0 0.0
2016-Feb-05 06:33N 35°30' E 139°43'0 0.0
2016-Feb-05 05:33N 35°30' E 139°43'0 0.0
2016-Feb-05 04:33N 35°30' E 139°43'0 0.0
2016-Feb-05 03:33N 35°30' E 139°43'0 0.0
2016-Feb-05 02:33N 35°30' E 139°43'0 0.0
2016-Feb-05 01:33N 35°30' E 139°43'2 2.5
2016-Feb-05 00:33N 35°28' E 139°43'4 4.1
2016-Feb-04 23:32N 35°24' E 139°45'0 0.0
2016-Feb-04 22:32N 35°24' E 139°45'0 0.0
2016-Feb-04 21:32N 35°24' E 139°45'0 0.0
2016-Feb-04 20:32N 35°24' E 139°45'0 0.0
2016-Feb-04 19:32N 35°24' E 139°45'0 0.0
2016-Feb-04 18:33N 35°24' E 139°45'9 8.6
2016-Feb-04 17:33N 35°16' E 139°47'1311.6
2016-Feb-04 16:27N 35°03' E 139°45'22 0.6
2016-Feb-03 03:34N 35°25' E 139°43'5 5.1
2016-Feb-03 02:33N 35°30' E 139°43'0 0.3
2016-Feb-03 01:33N 35°30' E 139°43'0 0.0
2016-Feb-03 00:34N 35°30' E 139°43'0 0.0
2016-Feb-02 23:33N 35°30' E 139°43'0 0.0
2016-Feb-02 22:33N 35°30' E 139°43'0 0.0
2016-Feb-02 21:34N 35°30' E 139°43'0 0.0
2016-Feb-02 20:33N 35°30' E 139°43'0 0.0
2016-Feb-02 19:33N 35°30' E 139°43'0 0.0
2016-Feb-02 18:33N 35°30' E 139°43'0 0.0
2016-Feb-02 17:34N 35°30' E 139°43'0 0.0
2016-Feb-02 16:33N 35°30' E 139°43'0 0.0
2016-Feb-02 15:34N 35°30' E 139°43'0 0.0
2016-Feb-02 14:33N 35°30' E 139°43'0 0.0
2016-Feb-02 13:33N 35°30' E 139°43'0 0.0
2016-Feb-02 12:34N 35°30' E 139°43'0 0.0
2016-Feb-02 11:34N 35°30' E 139°43'0 0.0
2016-Feb-02 10:33N 35°30' E 139°43'0 0.0
2016-Feb-02 09:33N 35°30' E 139°43'0 0.0
2016-Feb-02 08:34N 35°30' E 139°43'0 0.0
2016-Feb-02 07:33N 35°30' E 139°43'0 0.0
2016-Feb-02 06:33N 35°30' E 139°43'0 0.0
2016-Feb-02 05:33N 35°30' E 139°43'0 0.0
2016-Feb-02 04:33N 35°30' E 139°43'0 0.0
2016-Feb-02 03:33N 35°30' E 139°43'0 0.0
2016-Feb-02 02:33N 35°30' E 139°43'5 5.0
2016-Feb-02 01:33N 35°25' E 139°44'  

Dump ship's entire track history